createdAt,value
2022-10-21T00:01:55.877Z,3.80
2022-10-21T00:03:58.373Z,3.70
2022-10-21T00:06:00.388Z,3.93
2022-10-21T00:08:02.700Z,3.73
2022-10-21T00:10:05.961Z,3.40
2022-10-21T00:12:08.276Z,3.90
2022-10-21T00:14:35.436Z,3.80
2022-10-21T00:16:37.962Z,3.87
2022-10-21T00:18:41.394Z,4.00
2022-10-21T00:20:43.489Z,3.20
2022-10-21T00:22:45.568Z,3.40
2022-10-21T00:24:48.109Z,3.37
2022-10-21T00:26:50.982Z,3.20
2022-10-21T00:28:59.309Z,3.33
2022-10-21T00:31:01.838Z,3.10
2022-10-21T00:33:04.051Z,3.63
2022-10-21T00:35:06.561Z,4.20
2022-10-21T00:37:12.029Z,3.40
2022-10-21T00:39:14.019Z,4.60
2022-10-21T00:41:19.987Z,5.90
2022-10-21T00:43:22.477Z,6.20
2022-10-21T00:45:29.651Z,7.00
2022-10-21T00:47:38.244Z,5.30
2022-10-21T00:49:46.425Z,4.40
2022-10-21T00:51:52.930Z,4.07
2022-10-21T00:53:55.115Z,4.10
2022-10-21T00:56:04.014Z,4.87
2022-10-21T00:58:08.764Z,4.80
2022-10-21T01:00:14.165Z,5.40
2022-10-21T01:02:16.762Z,4.87
2022-10-21T01:04:22.652Z,6.67
2022-10-21T01:06:26.438Z,7.80
2022-10-21T01:08:29.556Z,7.80
2022-10-21T01:10:31.971Z,8.70
2022-10-21T01:12:50.013Z,10.17
2022-10-21T01:14:58.406Z,9.63
2022-10-21T01:17:15.500Z,7.50
2022-10-21T01:19:36.308Z,6.17
2022-10-21T01:21:56.188Z,5.37
2022-10-21T01:26:05.930Z,4.30
2022-10-21T01:28:15.664Z,4.27
2022-10-21T01:30:19.474Z,3.60
2022-10-21T01:32:42.121Z,3.37
2022-10-21T01:34:56.332Z,2.90
2022-10-21T01:37:04.605Z,3.67
2022-10-21T01:39:31.017Z,3.30
2022-10-21T01:41:48.732Z,3.60
2022-10-21T01:44:14.398Z,3.33
2022-10-21T01:46:26.194Z,3.37
2022-10-21T01:48:34.009Z,3.67
2022-10-21T01:50:42.568Z,2.90
2022-10-21T01:52:49.977Z,2.77
2022-10-21T01:54:59.176Z,2.73
2022-10-21T02:00:50.900Z,2.40
2022-10-21T02:02:52.997Z,2.33
2022-10-21T02:04:56.371Z,2.20
2022-10-21T02:06:58.698Z,2.20
2022-10-21T02:09:00.965Z,2.47
2022-10-21T02:11:07.151Z,2.63
2022-10-21T02:13:10.999Z,2.50
2022-10-21T02:15:15.699Z,2.37
2022-10-21T02:17:20.241Z,3.07
2022-10-21T02:19:22.173Z,2.40
2022-10-21T02:21:28.370Z,2.70
2022-10-21T02:23:43.931Z,2.37
2022-10-21T02:25:50.749Z,2.37
2022-10-21T02:27:53.440Z,2.93
2022-10-21T02:34:06.349Z,2.53
2022-10-21T02:40:29.236Z,2.53
2022-10-21T02:42:40.167Z,3.23
2022-10-21T02:48:37.485Z,3.13
2022-10-21T02:50:39.719Z,3.47
2022-10-21T02:52:41.666Z,3.47
2022-10-21T02:54:43.454Z,3.30
2022-10-21T02:56:45.230Z,3.53
2022-10-21T02:58:47.090Z,2.93
2022-10-21T03:00:49.343Z,3.07
2022-10-21T03:02:51.178Z,2.90
2022-10-21T03:04:53.055Z,3.13
2022-10-21T03:06:55.137Z,3.40
2022-10-21T03:08:57.372Z,2.30
2022-10-21T03:10:59.566Z,2.37
2022-10-21T03:13:01.575Z,2.27
2022-10-21T03:15:04.061Z,2.30
2022-10-21T03:17:06.208Z,2.50
2022-10-21T03:23:08.146Z,2.10
2022-10-21T03:25:10.344Z,2.50
2022-10-21T03:27:12.252Z,2.23
2022-10-21T03:29:14.349Z,1.73
2022-10-21T03:31:16.365Z,2.23
2022-10-21T03:33:18.251Z,2.30
2022-10-21T03:35:20.080Z,2.30
2022-10-21T03:37:21.924Z,2.33
2022-10-21T03:39:23.854Z,2.47
2022-10-21T03:41:25.805Z,2.20
2022-10-21T03:43:27.625Z,1.73
2022-10-21T03:49:02.828Z,1.90
2022-10-21T03:51:08.754Z,1.87
2022-10-21T03:53:24.432Z,2.10
2022-10-21T03:55:32.545Z,2.43
2022-10-21T03:57:34.401Z,3.33
2022-10-21T03:59:36.273Z,2.80
2022-10-21T04:01:38.120Z,2.93
2022-10-21T04:03:41.296Z,2.83
2022-10-21T04:05:43.170Z,2.70
2022-10-21T04:07:49.290Z,3.73
2022-10-21T04:09:54.072Z,3.67
2022-10-21T04:11:56.118Z,3.90
2022-10-21T04:13:58.197Z,4.83
2022-10-21T04:16:02.896Z,7.27
2022-10-21T04:18:06.550Z,9.17
2022-10-21T04:20:09.759Z,8.80
2022-10-21T04:22:11.722Z,8.57
2022-10-21T04:24:13.843Z,8.83
2022-10-21T04:26:15.751Z,8.40
2022-10-21T04:28:17.606Z,8.67
2022-10-21T04:30:19.956Z,7.53
2022-10-21T04:32:21.667Z,7.00
2022-10-21T04:34:23.558Z,6.63
2022-10-21T04:36:25.525Z,5.90
2022-10-21T04:38:28.190Z,5.70
2022-10-21T04:40:30.442Z,5.40
2022-10-21T04:42:32.593Z,5.97
2022-10-21T04:44:34.481Z,5.00
2022-10-21T04:46:36.465Z,6.30
2022-10-21T04:48:38.364Z,5.53
2022-10-21T04:50:40.450Z,6.03
2022-10-21T04:52:42.351Z,7.87
2022-10-21T04:54:44.296Z,7.80
2022-10-21T04:56:46.216Z,7.70
2022-10-21T04:58:48.299Z,9.43
2022-10-21T05:04:45.048Z,11.00
2022-10-21T05:06:46.997Z,18.93
2022-10-21T05:08:48.908Z,11.50
2022-10-21T05:10:58.368Z,10.63
2022-10-21T05:13:00.645Z,10.50
2022-10-21T05:15:02.602Z,11.00
2022-10-21T05:17:04.607Z,9.67
2022-10-21T05:19:06.716Z,7.40
2022-10-21T05:21:08.876Z,7.03
2022-10-21T05:23:10.921Z,6.37
2022-10-21T05:25:15.253Z,6.70
2022-10-21T05:27:17.276Z,5.87
2022-10-21T05:29:44.469Z,6.40
2022-10-21T05:31:46.290Z,5.93
2022-10-21T05:33:48.225Z,5.80
2022-10-21T05:36:05.121Z,5.83
2022-10-21T05:38:07.060Z,8.00
2022-10-21T05:40:09.353Z,6.57
2022-10-21T05:42:11.350Z,7.60
2022-10-21T05:44:13.372Z,7.70
2022-10-21T05:46:15.327Z,6.93
2022-10-21T05:48:20.542Z,9.03
2022-10-21T05:50:25.085Z,7.13
2022-10-21T05:52:26.953Z,6.00
2022-10-21T05:54:28.816Z,5.37
2022-10-21T05:56:31.345Z,4.80
2022-10-21T05:58:35.021Z,4.27
2022-10-21T06:00:36.939Z,3.70
2022-10-21T06:02:39.165Z,4.43
2022-10-21T06:04:41.279Z,4.57
2022-10-21T06:06:43.305Z,4.23
2022-10-21T06:08:45.267Z,5.53
2022-10-21T06:10:47.400Z,5.33
2022-10-21T06:12:49.327Z,6.00
2022-10-21T06:14:51.333Z,7.77
2022-10-21T06:16:53.324Z,7.80
2022-10-21T06:18:57.910Z,5.80
2022-10-21T06:21:00.098Z,5.67
2022-10-21T06:23:02.096Z,5.67
2022-10-21T06:25:04.245Z,5.90
2022-10-21T06:27:06.987Z,4.20
2022-10-21T06:29:08.929Z,3.53
2022-10-21T06:31:16.588Z,4.77
2022-10-21T06:33:22.109Z,6.73
2022-10-21T06:35:26.687Z,5.20
2022-10-21T06:37:28.433Z,4.20
2022-10-21T06:39:30.667Z,3.90
2022-10-21T06:41:32.557Z,3.87
2022-10-21T06:43:35.310Z,4.60
2022-10-21T06:45:37.801Z,5.03
2022-10-21T06:47:40.195Z,5.00
2022-10-21T06:49:42.440Z,4.63
2022-10-21T06:51:44.371Z,4.30
2022-10-21T06:53:47.206Z,4.53
2022-10-21T06:55:49.064Z,4.60
2022-10-21T06:57:51.430Z,9.30
2022-10-21T06:59:53.379Z,13.67
2022-10-21T07:02:00.044Z,10.80
2022-10-21T07:04:04.448Z,26.30
2022-10-21T07:06:07.001Z,28.63
2022-10-21T07:08:11.907Z,24.37
2022-10-21T07:10:14.862Z,17.23
2022-10-21T07:12:17.166Z,16.27
2022-10-21T07:14:19.189Z,6.47
2022-10-21T07:16:27.747Z,5.20
2022-10-21T07:18:30.893Z,10.70
2022-10-21T07:20:34.479Z,10.13
2022-10-21T07:22:36.439Z,9.17
2022-10-21T07:24:38.343Z,6.03
2022-10-21T07:26:41.179Z,8.90
2022-10-21T07:28:47.086Z,10.10
2022-10-21T07:30:49.292Z,10.90
2022-10-21T07:32:51.692Z,16.70
2022-10-21T07:34:53.607Z,10.38
2022-10-21T07:36:55.490Z,8.20
2022-10-21T07:39:03.850Z,6.07
2022-10-21T07:41:06.177Z,7.40
2022-10-21T07:43:09.172Z,10.40
2022-10-21T07:45:12.879Z,6.07
2022-10-21T07:47:14.745Z,6.30
2022-10-21T07:49:18.950Z,5.78
2022-10-21T07:51:28.362Z,5.72
2022-10-21T07:53:32.324Z,5.75
2022-10-21T07:55:36.552Z,5.90
2022-10-21T07:57:38.793Z,5.55
2022-10-21T07:59:40.897Z,4.50
2022-10-21T08:03:55.967Z,3.78
2022-10-21T08:05:58.132Z,3.40
2022-10-21T08:08:00.372Z,3.47
2022-10-21T08:10:02.821Z,3.67
2022-10-21T08:12:04.723Z,3.13
2022-10-21T08:14:08.506Z,3.58
2022-10-21T08:16:10.430Z,3.30
2022-10-21T08:18:12.438Z,3.10
2022-10-21T08:20:14.358Z,3.08
2022-10-21T08:22:16.199Z,3.30
2022-10-21T08:24:18.119Z,3.38
2022-10-21T08:26:20.141Z,2.90
2022-10-21T08:28:24.536Z,2.63
2022-10-21T08:30:32.284Z,2.72
2022-10-21T08:32:34.282Z,3.15
2022-10-21T08:34:36.313Z,2.42
2022-10-21T08:36:39.125Z,2.05
2022-10-21T08:42:42.667Z,2.00
2022-10-21T08:44:46.602Z,1.83
2022-10-21T08:47:05.757Z,1.67
2022-10-21T08:49:16.529Z,1.77
2022-10-21T08:51:32.209Z,1.88
2022-10-21T08:53:45.366Z,2.20
2022-10-21T08:55:48.312Z,1.90
2022-10-21T08:57:53.941Z,1.73
2022-10-21T08:59:59.209Z,1.60
2022-10-21T09:02:25.071Z,1.67
2022-10-21T09:05:12.078Z,1.58
2022-10-21T09:07:28.413Z,2.05
2022-10-21T09:09:52.415Z,1.60
2022-10-21T09:12:14.374Z,2.17
2022-10-21T09:14:44.077Z,1.80
2022-10-21T09:16:54.533Z,2.03
2022-10-21T09:19:34.287Z,1.90
2022-10-21T09:21:45.527Z,2.70
2022-10-21T09:23:57.248Z,3.25
2022-10-21T09:26:06.368Z,5.75
2022-10-21T09:28:14.311Z,5.47
2022-10-21T09:30:24.548Z,4.13
2022-10-21T09:32:32.668Z,3.42
2022-10-21T09:34:58.094Z,3.95
2022-10-21T09:37:02.843Z,3.00
2022-10-21T09:39:22.186Z,3.45
2022-10-21T09:41:30.433Z,4.32
2022-10-21T09:43:33.275Z,4.07
2022-10-21T09:45:44.364Z,4.75
2022-10-21T09:47:52.100Z,4.10
2022-10-21T09:50:09.817Z,3.47
2022-10-21T09:52:12.349Z,4.00
2022-10-21T09:54:22.258Z,3.97
2022-10-21T09:56:26.132Z,11.57
2022-10-21T09:58:36.777Z,9.55
2022-10-21T10:00:53.112Z,7.60
2022-10-21T10:03:06.804Z,10.32
2022-10-21T10:05:36.308Z,10.48
2022-10-21T10:07:38.415Z,12.18
2022-10-21T10:09:46.151Z,11.27
2022-10-21T10:12:12.637Z,11.90
2022-10-21T10:14:32.616Z,10.07
2022-10-21T10:16:34.802Z,13.95
2022-10-21T10:18:36.984Z,12.05
2022-10-21T10:20:38.933Z,8.40
2022-10-21T10:22:43.199Z,14.18
2022-10-21T10:24:45.561Z,11.73
2022-10-21T10:26:48.745Z,11.27
2022-10-21T10:29:00.840Z,11.23
2022-10-21T10:35:05.032Z,8.63
2022-10-21T10:37:22.970Z,8.88
2022-10-21T10:39:30.764Z,6.28
2022-10-21T10:41:38.276Z,7.40
2022-10-21T10:43:47.929Z,6.45
2022-10-21T10:46:10.424Z,3.63
2022-10-21T10:48:23.105Z,2.63
2022-10-21T10:50:44.566Z,4.90
2022-10-21T10:52:46.462Z,4.45
2022-10-21T10:54:49.758Z,4.38
2022-10-21T10:57:04.128Z,3.05
2022-10-21T10:59:14.706Z,3.40
2022-10-21T11:01:41.975Z,3.88
2022-10-21T11:03:55.198Z,3.00
2022-10-21T11:06:07.305Z,2.03
2022-10-21T11:08:29.748Z,2.05
2022-10-21T11:11:03.657Z,1.98
2022-10-21T11:13:12.696Z,2.15
2022-10-21T11:15:16.566Z,2.05
2022-10-21T11:17:21.752Z,2.10
2022-10-21T11:19:36.049Z,4.00
2022-10-21T11:21:56.536Z,6.50
2022-10-21T11:24:19.505Z,7.40
2022-10-21T11:26:40.348Z,10.48
2022-10-21T11:29:10.580Z,16.08
2022-10-21T11:32:09.707Z,13.23
2022-10-21T11:34:37.029Z,8.15
2022-10-21T11:36:57.574Z,7.80
2022-10-21T11:39:29.436Z,9.68
2022-10-21T11:42:06.635Z,12.88
2022-10-21T11:44:48.522Z,15.02
2022-10-21T11:47:12.461Z,14.05
2022-10-21T11:49:38.153Z,9.93
2022-10-21T11:51:43.401Z,5.65
2022-10-21T11:54:03.656Z,4.03
2022-10-21T11:56:13.254Z,4.03
2022-10-21T11:58:18.293Z,3.45
2022-10-21T12:00:27.116Z,3.13
2022-10-21T12:03:00.962Z,3.55
2022-10-21T12:05:21.856Z,2.90
2022-10-21T12:07:40.944Z,2.70
2022-10-21T12:10:00.015Z,2.65
2022-10-21T12:12:09.738Z,2.10
2022-10-21T12:14:43.533Z,2.40
2022-10-21T12:16:47.019Z,2.60
2022-10-21T12:18:56.222Z,2.70
2022-10-21T12:20:59.858Z,2.50
2022-10-21T12:23:06.169Z,2.60
2022-10-21T12:25:16.964Z,2.40
2022-10-21T12:28:10.326Z,2.88
2022-10-21T12:30:15.242Z,3.80
2022-10-21T12:32:31.844Z,3.53
2022-10-21T12:34:34.615Z,3.80
2022-10-21T12:37:26.885Z,3.50
2022-10-21T12:39:34.510Z,3.60
2022-10-21T12:41:38.541Z,3.92
2022-10-21T12:43:41.839Z,3.65
2022-10-21T12:45:44.395Z,4.75
2022-10-21T12:47:46.654Z,16.92
2022-10-21T12:50:23.607Z,27.38
2022-10-21T12:52:25.834Z,33.70
2022-10-21T12:54:31.103Z,26.42
2022-10-21T12:56:51.355Z,23.83
2022-10-21T12:59:03.415Z,19.92
2022-10-21T13:01:27.291Z,16.08
2022-10-21T13:03:51.285Z,13.30
2022-10-21T13:05:53.077Z,11.45
2022-10-21T13:08:23.016Z,13.30
2022-10-21T13:10:26.506Z,13.10
2022-10-21T13:12:28.457Z,11.82
2022-10-21T13:14:45.737Z,10.27
2022-10-21T13:16:48.502Z,9.75
2022-10-21T13:18:50.578Z,10.50
2022-10-21T13:20:58.805Z,6.65
2022-10-21T13:23:31.794Z,5.95
2022-10-21T13:25:36.358Z,5.50
2022-10-21T13:27:39.600Z,5.47
2022-10-21T13:29:45.653Z,5.70
2022-10-21T13:31:48.029Z,5.60
2022-10-21T13:33:55.600Z,6.03
2022-10-21T13:36:04.260Z,4.95
2022-10-21T13:38:22.318Z,4.30
2022-10-21T13:40:30.834Z,5.63
2022-10-21T13:42:40.674Z,5.30
2022-10-21T13:44:53.351Z,4.80
2022-10-21T13:46:55.462Z,4.82
2022-10-21T13:49:01.503Z,4.57
2022-10-21T13:51:16.036Z,4.53
2022-10-21T13:53:18.112Z,5.07
2022-10-21T13:55:23.128Z,4.13
2022-10-21T13:57:32.504Z,4.35
2022-10-21T13:59:35.128Z,4.45
2022-10-21T14:01:52.765Z,4.18
2022-10-21T14:04:14.641Z,4.15
2022-10-21T14:06:26.064Z,4.70
2022-10-21T14:08:33.223Z,5.20
2022-10-21T14:10:36.403Z,4.43
2022-10-21T14:12:46.549Z,4.28
2022-10-21T14:14:49.796Z,4.03
2022-10-21T14:16:55.877Z,3.55
2022-10-21T14:19:01.812Z,3.47
2022-10-21T14:21:05.374Z,4.07
2022-10-21T14:23:15.934Z,3.58
2022-10-21T14:25:19.116Z,3.42
2022-10-21T14:27:46.945Z,3.28
2022-10-21T14:29:49.467Z,2.78
2022-10-21T14:31:51.609Z,3.13
2022-10-21T14:33:54.062Z,3.25
2022-10-21T14:36:05.438Z,2.67
2022-10-21T14:38:29.528Z,2.80
2022-10-21T14:40:37.887Z,2.95
2022-10-21T14:42:41.667Z,3.10
2022-10-21T14:44:46.681Z,2.70
2022-10-21T14:46:51.419Z,2.75
2022-10-21T14:49:03.590Z,2.53
2022-10-21T14:51:13.575Z,2.80
2022-10-21T14:53:21.590Z,3.00
2022-10-21T14:55:30.064Z,2.67
2022-10-21T14:57:40.750Z,2.50
2022-10-21T14:59:43.843Z,2.72
2022-10-21T15:01:46.193Z,3.00
2022-10-21T15:03:50.153Z,3.00
2022-10-21T15:06:10.307Z,3.92
2022-10-21T15:08:21.375Z,8.35
2022-10-21T15:10:23.477Z,10.48
2022-10-21T15:12:26.010Z,12.95
2022-10-21T15:14:31.954Z,13.65
2022-10-21T15:18:42.482Z,12.68
2022-10-21T15:21:05.792Z,12.25
2022-10-21T15:23:20.037Z,14.25
2022-10-21T15:25:24.776Z,12.50
2022-10-21T15:27:36.599Z,12.82
2022-10-21T15:29:45.008Z,12.55
2022-10-21T15:31:47.412Z,10.40
2022-10-21T15:33:51.043Z,9.38
2022-10-21T15:36:09.716Z,9.13
2022-10-21T15:38:11.986Z,8.65
2022-10-21T15:40:14.223Z,9.55
2022-10-21T15:42:18.624Z,8.80
2022-10-21T15:44:31.822Z,8.65
2022-10-21T15:46:35.589Z,8.85
2022-10-21T15:48:37.726Z,8.30
2022-10-21T15:50:43.018Z,7.55
2022-10-21T15:52:45.376Z,6.75
2022-10-21T15:54:47.755Z,7.25
2022-10-21T15:56:52.457Z,6.60
2022-10-21T15:58:54.765Z,8.32
2022-10-21T16:00:56.815Z,8.48
2022-10-21T16:02:59.442Z,8.05
2022-10-21T16:05:01.510Z,9.20
2022-10-21T16:07:09.405Z,9.38
2022-10-21T16:09:16.754Z,8.90
2022-10-21T16:11:34.645Z,10.00
2022-10-21T16:14:10.250Z,10.40
2022-10-21T16:16:20.993Z,12.60
2022-10-21T16:18:22.926Z,12.20
2022-10-21T16:20:29.669Z,14.90
2022-10-21T16:22:31.734Z,15.60
2022-10-21T16:24:33.654Z,16.23
2022-10-21T16:26:40.487Z,16.38
2022-10-21T16:28:43.071Z,18.35
2022-10-21T16:30:45.180Z,21.63
2022-10-21T16:32:47.764Z,23.02
2022-10-21T16:34:49.747Z,28.73
2022-10-21T16:36:51.765Z,29.67
2022-10-21T16:38:54.061Z,29.65
2022-10-21T16:40:56.251Z,30.10
2022-10-21T16:42:58.190Z,29.20
2022-10-21T16:45:00.257Z,28.40
2022-10-21T16:47:03.424Z,26.85
2022-10-21T16:49:13.099Z,27.50
2022-10-21T16:51:15.792Z,26.17
2022-10-21T16:53:17.955Z,25.17
2022-10-21T16:55:20.288Z,24.70
2022-10-21T16:57:22.278Z,22.23
2022-10-21T16:59:24.218Z,21.60
2022-10-21T17:01:26.523Z,18.75
2022-10-21T17:03:28.442Z,17.25
2022-10-21T17:05:30.766Z,15.60
2022-10-21T17:07:34.124Z,15.80
2022-10-21T17:09:36.320Z,15.88
2022-10-21T17:11:40.043Z,14.45
2022-10-21T17:13:43.323Z,14.70
2022-10-21T17:15:45.747Z,15.18
2022-10-21T17:17:47.768Z,15.30
2022-10-21T17:19:50.295Z,16.52
2022-10-21T17:25:45.577Z,25.80
2022-10-21T17:27:47.491Z,29.30
2022-10-21T17:29:49.387Z,31.30
2022-10-21T17:31:51.813Z,32.38
2022-10-21T17:33:57.037Z,33.00
2022-10-21T17:35:59.022Z,34.22
2022-10-21T17:38:01.723Z,34.72
2022-10-21T17:40:03.778Z,35.92
2022-10-21T17:42:06.024Z,36.55
2022-10-21T17:44:12.405Z,36.38
2022-10-21T17:46:18.218Z,37.03
2022-10-21T17:48:20.101Z,35.80
2022-10-21T17:50:26.152Z,35.03
2022-10-21T17:52:28.042Z,35.10
2022-10-21T17:54:31.721Z,34.60
2022-10-21T17:56:36.468Z,32.33
2022-10-21T17:58:38.449Z,33.28
2022-10-21T18:00:43.767Z,32.45
2022-10-21T18:02:46.785Z,33.22
2022-10-21T18:04:48.633Z,31.55
2022-10-21T18:06:50.679Z,32.22
2022-10-21T18:08:53.134Z,32.38
2022-10-21T18:10:57.738Z,32.95
2022-10-21T18:12:59.780Z,33.08
2022-10-21T18:15:02.320Z,32.53
2022-10-21T18:17:04.860Z,31.65
2022-10-21T18:19:06.997Z,31.25
2022-10-21T18:21:12.492Z,31.10
2022-10-21T18:23:14.994Z,32.22
2022-10-21T18:25:17.137Z,32.75
2022-10-21T18:27:19.169Z,35.90
2022-10-21T18:29:22.271Z,34.00
2022-10-21T18:31:26.402Z,36.92
2022-10-21T18:33:28.656Z,37.92
2022-10-21T18:35:30.563Z,37.25
2022-10-21T18:37:34.182Z,39.67
2022-10-21T18:39:36.460Z,38.95
2022-10-21T18:41:38.753Z,37.03
2022-10-21T18:43:40.688Z,40.03
2022-10-21T18:45:46.151Z,37.08
2022-10-21T18:47:49.902Z,40.58
2022-10-21T18:49:51.787Z,37.33
2022-10-21T18:51:53.674Z,38.63
2022-10-21T18:53:55.921Z,39.08
2022-10-21T18:55:57.680Z,40.15
2022-10-21T18:57:59.607Z,41.47
2022-10-21T19:00:01.613Z,45.83
2022-10-21T19:02:04.176Z,44.58
2022-10-21T19:04:06.779Z,44.22
2022-10-21T19:06:32.010Z,45.65
2022-10-21T19:08:33.897Z,44.80
2022-10-21T19:10:35.738Z,44.47
2022-10-21T19:12:37.640Z,45.40
2022-10-21T19:14:39.376Z,49.35
2022-10-21T19:16:42.268Z,48.50
2022-10-21T19:18:44.038Z,43.45
2022-10-21T19:20:46.039Z,41.63
2022-10-21T19:22:47.955Z,41.92
2022-10-21T19:24:49.794Z,38.80
2022-10-21T19:26:56.598Z,36.63
2022-10-21T19:29:09.681Z,36.58
2022-10-21T19:31:11.976Z,35.05
2022-10-21T19:33:13.809Z,35.22
2022-10-21T19:35:15.681Z,35.55
2022-10-21T19:37:17.573Z,35.90
2022-10-21T19:39:20.081Z,34.38
2022-10-21T19:41:23.157Z,36.80
2022-10-21T19:43:26.021Z,36.95
2022-10-21T19:45:28.131Z,37.72
2022-10-21T19:47:31.366Z,36.60
2022-10-21T19:49:34.024Z,37.08
2022-10-21T19:51:37.254Z,39.92
2022-10-21T19:53:40.122Z,39.53
2022-10-21T19:55:42.069Z,38.08
2022-10-21T19:57:43.927Z,39.92
2022-10-21T19:59:45.808Z,35.22
2022-10-21T20:01:47.843Z,31.90
2022-10-21T20:04:32.560Z,30.75
2022-10-21T20:06:37.985Z,28.13
2022-10-21T20:08:40.211Z,26.00
2022-10-21T20:10:42.105Z,26.90
2022-10-21T20:12:43.939Z,28.65
2022-10-21T20:14:45.801Z,28.67
2022-10-21T20:16:49.093Z,27.77
2022-10-21T20:18:51.294Z,29.85
2022-10-21T20:20:54.467Z,27.60
2022-10-21T20:22:56.550Z,30.85
2022-10-21T20:24:58.416Z,30.05
2022-10-21T20:27:02.281Z,30.50
2022-10-21T20:29:04.385Z,34.25
2022-10-21T20:31:10.407Z,33.72
2022-10-21T20:33:12.682Z,27.70
2022-10-21T20:35:14.628Z,26.17
2022-10-21T20:37:16.754Z,27.20
2022-10-21T20:39:18.711Z,24.13
2022-10-21T20:41:23.671Z,24.90
2022-10-21T20:43:28.485Z,25.08
2022-10-21T20:45:30.514Z,23.75
2022-10-21T20:47:32.349Z,24.17
2022-10-21T20:49:34.307Z,23.30
2022-10-21T20:51:38.119Z,23.08
2022-10-21T20:53:53.526Z,22.65
2022-10-21T20:55:56.309Z,24.65
2022-10-21T20:57:58.364Z,24.08
2022-10-21T21:00:00.495Z,31.10
2022-10-21T21:02:02.334Z,31.23
2022-10-21T21:04:08.481Z,28.23
2022-10-21T21:06:12.329Z,28.58
2022-10-21T21:08:14.192Z,27.05
2022-10-21T21:10:16.252Z,27.60
2022-10-21T21:12:18.403Z,23.77
2022-10-21T21:14:20.417Z,21.05
2022-10-21T21:16:25.391Z,19.33
2022-10-21T21:18:27.622Z,18.77
2022-10-21T21:20:29.729Z,17.08
2022-10-21T21:22:31.643Z,18.25
2022-10-21T21:24:33.655Z,18.10
2022-10-21T21:26:37.948Z,18.73
2022-10-21T21:29:42.257Z,19.40
2022-10-21T21:31:44.497Z,16.80
2022-10-21T21:33:46.345Z,15.27
2022-10-21T21:35:48.626Z,13.30
2022-10-21T21:37:50.739Z,13.55
2022-10-21T21:39:52.732Z,13.70
2022-10-21T21:41:54.571Z,13.20
2022-10-21T21:44:22.106Z,12.35
2022-10-21T21:46:25.248Z,12.60
2022-10-21T21:48:27.946Z,12.15
2022-10-21T21:50:29.877Z,12.93
2022-10-21T21:52:32.383Z,12.95
2022-10-21T21:54:34.220Z,13.10
2022-10-21T21:56:36.532Z,12.75
2022-10-21T21:58:39.595Z,12.57
2022-10-21T22:00:41.618Z,11.52
2022-10-21T22:02:44.162Z,11.90
2022-10-21T22:04:46.285Z,11.18
2022-10-21T22:06:48.392Z,10.77
2022-10-21T22:08:51.428Z,11.95
2022-10-21T22:10:53.536Z,10.32
2022-10-21T22:12:56.750Z,10.30
2022-10-21T22:14:58.849Z,9.93
2022-10-21T22:17:00.968Z,9.50
2022-10-21T22:19:02.940Z,9.77
2022-10-21T22:21:08.373Z,9.80
2022-10-21T22:23:10.234Z,8.90
2022-10-21T22:25:14.569Z,8.93
2022-10-21T22:27:16.561Z,9.00
2022-10-21T22:29:18.771Z,10.73
2022-10-21T22:31:28.947Z,10.95
2022-10-21T22:33:33.259Z,9.27
2022-10-21T22:35:38.828Z,9.52
2022-10-21T22:37:41.071Z,10.00
2022-10-21T22:39:43.376Z,9.32
2022-10-21T22:41:45.292Z,9.60
2022-10-21T22:43:47.375Z,9.93
2022-10-21T22:45:49.255Z,9.90
2022-10-21T22:47:51.085Z,10.02
2022-10-21T22:49:53.144Z,10.23
2022-10-21T22:51:55.142Z,9.68
2022-10-21T22:53:57.129Z,10.77
2022-10-21T22:55:59.416Z,12.32
2022-10-21T22:58:01.522Z,13.30
2022-10-21T23:00:04.380Z,16.20
2022-10-21T23:02:06.551Z,16.08
2022-10-21T23:04:10.051Z,15.40
2022-10-21T23:06:11.903Z,15.73
2022-10-21T23:08:18.283Z,15.75
2022-10-21T23:10:20.232Z,13.20
2022-10-21T23:12:22.114Z,11.25
2022-10-21T23:14:24.126Z,12.85
2022-10-21T23:16:26.091Z,14.93
2022-10-21T23:18:28.425Z,14.77
2022-10-21T23:20:30.452Z,13.63
2022-10-21T23:22:32.436Z,13.95
2022-10-21T23:24:34.276Z,16.58
2022-10-21T23:26:51.266Z,20.75
2022-10-21T23:28:53.277Z,31.83
2022-10-21T23:30:55.456Z,33.42
2022-10-21T23:32:57.377Z,28.17
2022-10-21T23:34:59.412Z,26.15
2022-10-21T23:37:01.333Z,24.73
2022-10-21T23:39:04.001Z,21.15
2022-10-21T23:41:05.886Z,23.15
2022-10-21T23:43:08.039Z,19.27
2022-10-21T23:45:11.538Z,17.98
2022-10-21T23:47:13.520Z,18.42
2022-10-21T23:49:15.547Z,16.33
2022-10-21T23:51:17.650Z,15.43
2022-10-21T23:53:19.645Z,14.23
2022-10-21T23:55:21.712Z,14.75
2022-10-21T23:57:23.911Z,13.48
2022-10-21T23:59:25.766Z,14.70
